sensor_id;sensor_type;location;lat;lon;timestamp;P1;durP1;ratioP1;P2;durP2;ratioP2
56239;SDS011;42154;51.992;5.896;2023-08-17T00:01:49;2.97;;;1.33;;
56239;SDS011;42154;51.992;5.896;2023-08-17T00:04:15;1.90;;;1.10;;
56239;SDS011;42154;51.992;5.896;2023-08-17T00:06:41;3.35;;;1.20;;
56239;SDS011;42154;51.992;5.896;2023-08-17T00:09:07;2.90;;;1.35;;
56239;SDS011;42154;51.992;5.896;2023-08-17T00:11:34;3.35;;;1.10;;
56239;SDS011;42154;51.992;5.896;2023-08-17T00:14:00;3.28;;;1.38;;
56239;SDS011;42154;51.992;5.896;2023-08-17T00:16:25;3.38;;;1.30;;
56239;SDS011;42154;51.992;5.896;2023-08-17T00:18:51;3.25;;;1.70;;
56239;SDS011;42154;51.992;5.896;2023-08-17T00:21:17;4.82;;;1.33;;
56239;SDS011;42154;51.992;5.896;2023-08-17T00:23:43;3.08;;;1.60;;
56239;SDS011;42154;51.992;5.896;2023-08-17T00:26:09;2.28;;;1.02;;
56239;SDS011;42154;51.992;5.896;2023-08-17T00:28:35;3.47;;;1.20;;
56239;SDS011;42154;51.992;5.896;2023-08-17T00:31:00;3.35;;;1.13;;
56239;SDS011;42154;51.992;5.896;2023-08-17T00:33:27;2.85;;;1.13;;
56239;SDS011;42154;51.992;5.896;2023-08-17T00:35:52;3.55;;;1.30;;
56239;SDS011;42154;51.992;5.896;2023-08-17T00:38:18;5.75;;;1.30;;
56239;SDS011;42154;51.992;5.896;2023-08-17T00:40:44;3.67;;;1.42;;
56239;SDS011;42154;51.992;5.896;2023-08-17T00:43:10;2.10;;;1.25;;
56239;SDS011;42154;51.992;5.896;2023-08-17T00:45:35;3.17;;;1.30;;
56239;SDS011;42154;51.992;5.896;2023-08-17T00:48:02;3.17;;;1.17;;
56239;SDS011;42154;51.992;5.896;2023-08-17T00:52:59;8.38;;;1.63;;
56239;SDS011;42154;51.992;5.896;2023-08-17T00:55:26;2.10;;;1.15;;
56239;SDS011;42154;51.992;5.896;2023-08-17T00:57:53;5.28;;;1.50;;
56239;SDS011;42154;51.992;5.896;2023-08-17T01:00:21;2.92;;;1.70;;
56239;SDS011;42154;51.992;5.896;2023-08-17T01:02:49;4.10;;;1.40;;
56239;SDS011;42154;51.992;5.896;2023-08-17T01:05:16;2.83;;;1.58;;
56239;SDS011;42154;51.992;5.896;2023-08-17T01:07:41;3.83;;;1.48;;
56239;SDS011;42154;51.992;5.896;2023-08-17T01:10:07;4.38;;;1.38;;
56239;SDS011;42154;51.992;5.896;2023-08-17T01:15:35;4.70;;;1.60;;
56239;SDS011;42154;51.992;5.896;2023-08-17T01:20:47;2.83;;;1.35;;
56239;SDS011;42154;51.992;5.896;2023-08-17T01:23:14;4.43;;;1.30;;
56239;SDS011;42154;51.992;5.896;2023-08-17T01:25:40;5.28;;;1.42;;
56239;SDS011;42154;51.992;5.896;2023-08-17T01:28:07;3.30;;;1.52;;
56239;SDS011;42154;51.992;5.896;2023-08-17T01:30:33;2.97;;;1.23;;
56239;SDS011;42154;51.992;5.896;2023-08-17T01:33:28;2.88;;;1.42;;
56239;SDS011;42154;51.992;5.896;2023-08-17T01:36:05;3.45;;;1.52;;
56239;SDS011;42154;51.992;5.896;2023-08-17T01:38:43;6.07;;;1.67;;
56239;SDS011;42154;51.992;5.896;2023-08-17T01:41:10;4.88;;;1.60;;
56239;SDS011;42154;51.992;5.896;2023-08-17T01:43:44;4.47;;;1.60;;
56239;SDS011;42154;51.992;5.896;2023-08-17T01:46:14;4.38;;;1.67;;
56239;SDS011;42154;51.992;5.896;2023-08-17T01:48:41;6.20;;;2.13;;
56239;SDS011;42154;51.992;5.896;2023-08-17T01:51:07;6.75;;;2.83;;
56239;SDS011;42154;51.992;5.896;2023-08-17T01:53:33;4.43;;;1.67;;
56239;SDS011;42154;51.992;5.896;2023-08-17T01:55:59;5.22;;;2.22;;
56239;SDS011;42154;51.992;5.896;2023-08-17T01:58:25;6.93;;;2.10;;
56239;SDS011;42154;51.992;5.896;2023-08-17T02:00:50;4.25;;;1.83;;
56239;SDS011;42154;51.992;5.896;2023-08-17T02:03:16;4.13;;;1.70;;
56239;SDS011;42154;51.992;5.896;2023-08-17T02:05:45;5.57;;;1.90;;
56239;SDS011;42154;51.992;5.896;2023-08-17T02:08:14;5.53;;;1.88;;
56239;SDS011;42154;51.992;5.896;2023-08-17T02:10:39;5.38;;;2.08;;
56239;SDS011;42154;51.992;5.896;2023-08-17T02:13:05;3.40;;;1.83;;
56239;SDS011;42154;51.992;5.896;2023-08-17T02:15:31;4.95;;;2.05;;
56239;SDS011;42154;51.992;5.896;2023-08-17T02:17:59;2.80;;;1.42;;
56239;SDS011;42154;51.992;5.896;2023-08-17T02:20:26;3.95;;;1.45;;
56239;SDS011;42154;51.992;5.896;2023-08-17T02:22:51;5.63;;;2.00;;
56239;SDS011;42154;51.992;5.896;2023-08-17T02:25:17;4.25;;;1.38;;
56239;SDS011;42154;51.992;5.896;2023-08-17T02:27:43;4.78;;;1.80;;
56239;SDS011;42154;51.992;5.896;2023-08-17T02:30:09;3.33;;;2.00;;
56239;SDS011;42154;51.992;5.896;2023-08-17T02:32:35;4.55;;;1.60;;
56239;SDS011;42154;51.992;5.896;2023-08-17T02:35:01;4.32;;;1.90;;
56239;SDS011;42154;51.992;5.896;2023-08-17T02:37:27;5.18;;;1.90;;
56239;SDS011;42154;51.992;5.896;2023-08-17T02:39:53;3.33;;;1.50;;
56239;SDS011;42154;51.992;5.896;2023-08-17T02:42:18;4.55;;;1.45;;
56239;SDS011;42154;51.992;5.896;2023-08-17T02:44:44;3.03;;;1.40;;
56239;SDS011;42154;51.992;5.896;2023-08-17T02:47:10;4.60;;;1.60;;
56239;SDS011;42154;51.992;5.896;2023-08-17T02:49:36;2.72;;;1.35;;
56239;SDS011;42154;51.992;5.896;2023-08-17T02:52:01;3.85;;;1.42;;
56239;SDS011;42154;51.992;5.896;2023-08-17T02:54:27;4.88;;;1.70;;
56239;SDS011;42154;51.992;5.896;2023-08-17T02:56:53;2.47;;;1.50;;
56239;SDS011;42154;51.992;5.896;2023-08-17T02:59:20;4.40;;;1.63;;
56239;SDS011;42154;51.992;5.896;2023-08-17T03:01:45;4.63;;;1.50;;
56239;SDS011;42154;51.992;5.896;2023-08-17T03:04:12;4.15;;;1.80;;
56239;SDS011;42154;51.992;5.896;2023-08-17T03:06:38;4.80;;;1.60;;
56239;SDS011;42154;51.992;5.896;2023-08-17T03:09:04;3.72;;;1.70;;
56239;SDS011;42154;51.992;5.896;2023-08-17T03:11:29;5.55;;;1.80;;
56239;SDS011;42154;51.992;5.896;2023-08-17T03:13:55;5.85;;;1.50;;
56239;SDS011;42154;51.992;5.896;2023-08-17T03:16:26;2.67;;;1.52;;
56239;SDS011;42154;51.992;5.896;2023-08-17T03:18:52;4.50;;;1.73;;
56239;SDS011;42154;51.992;5.896;2023-08-17T03:21:18;4.43;;;2.25;;
56239;SDS011;42154;51.992;5.896;2023-08-17T03:23:46;3.17;;;1.65;;
56239;SDS011;42154;51.992;5.896;2023-08-17T03:26:11;6.47;;;2.17;;
56239;SDS011;42154;51.992;5.896;2023-08-17T03:28:37;4.85;;;2.05;;
56239;SDS011;42154;51.992;5.896;2023-08-17T03:31:04;5.28;;;2.28;;
56239;SDS011;42154;51.992;5.896;2023-08-17T03:33:31;4.15;;;1.90;;
56239;SDS011;42154;51.992;5.896;2023-08-17T03:35:57;3.67;;;1.75;;
56239;SDS011;42154;51.992;5.896;2023-08-17T03:38:24;2.65;;;1.63;;
56239;SDS011;42154;51.992;5.896;2023-08-17T03:40:50;4.40;;;1.83;;
56239;SDS011;42154;51.992;5.896;2023-08-17T03:43:15;5.05;;;1.92;;
56239;SDS011;42154;51.992;5.896;2023-08-17T03:45:41;4.38;;;1.45;;
56239;SDS011;42154;51.992;5.896;2023-08-17T03:48:08;3.78;;;1.95;;
56239;SDS011;42154;51.992;5.896;2023-08-17T03:50:34;5.25;;;1.75;;
56239;SDS011;42154;51.992;5.896;2023-08-17T03:53:00;5.22;;;2.42;;
56239;SDS011;42154;51.992;5.896;2023-08-17T03:55:26;7.65;;;2.15;;
56239;SDS011;42154;51.992;5.896;2023-08-17T03:57:52;4.75;;;1.88;;
56239;SDS011;42154;51.992;5.896;2023-08-17T04:00:17;4.43;;;2.05;;
56239;SDS011;42154;51.992;5.896;2023-08-17T04:02:43;6.43;;;2.47;;
56239;SDS011;42154;51.992;5.896;2023-08-17T04:05:14;2.35;;;1.67;;
56239;SDS011;42154;51.992;5.896;2023-08-17T04:07:40;3.35;;;1.55;;
56239;SDS011;42154;51.992;5.896;2023-08-17T04:10:06;6.80;;;2.15;;
56239;SDS011;42154;51.992;5.896;2023-08-17T04:12:33;5.18;;;2.60;;
56239;SDS011;42154;51.992;5.896;2023-08-17T04:14:58;2.83;;;1.60;;
56239;SDS011;42154;51.992;5.896;2023-08-17T04:17:25;4.57;;;2.13;;
56239;SDS011;42154;51.992;5.896;2023-08-17T04:19:51;3.92;;;2.00;;
56239;SDS011;42154;51.992;5.896;2023-08-17T04:22:17;3.53;;;1.60;;
56239;SDS011;42154;51.992;5.896;2023-08-17T04:24:43;5.30;;;2.22;;
56239;SDS011;42154;51.992;5.896;2023-08-17T04:27:08;5.38;;;1.90;;
56239;SDS011;42154;51.992;5.896;2023-08-17T04:29:34;5.80;;;1.75;;
56239;SDS011;42154;51.992;5.896;2023-08-17T04:32:02;5.97;;;2.00;;
56239;SDS011;42154;51.992;5.896;2023-08-17T04:34:27;3.03;;;1.70;;
56239;SDS011;42154;51.992;5.896;2023-08-17T04:36:53;4.32;;;2.05;;
56239;SDS011;42154;51.992;5.896;2023-08-17T04:39:19;4.00;;;1.75;;
56239;SDS011;42154;51.992;5.896;2023-08-17T04:41:45;5.03;;;2.13;;
56239;SDS011;42154;51.992;5.896;2023-08-17T04:44:15;3.10;;;1.70;;
56239;SDS011;42154;51.992;5.896;2023-08-17T04:46:40;2.88;;;1.50;;
56239;SDS011;42154;51.992;5.896;2023-08-17T04:49:07;2.60;;;1.30;;
56239;SDS011;42154;51.992;5.896;2023-08-17T04:51:32;2.40;;;1.48;;
56239;SDS011;42154;51.992;5.896;2023-08-17T04:53:58;5.15;;;1.40;;
56239;SDS011;42154;51.992;5.896;2023-08-17T04:56:24;5.00;;;1.65;;
56239;SDS011;42154;51.992;5.896;2023-08-17T04:58:51;4.75;;;1.80;;
56239;SDS011;42154;51.992;5.896;2023-08-17T05:01:17;5.30;;;1.50;;
56239;SDS011;42154;51.992;5.896;2023-08-17T05:03:43;4.00;;;1.30;;
56239;SDS011;42154;51.992;5.896;2023-08-17T05:06:09;4.75;;;1.40;;
56239;SDS011;42154;51.992;5.896;2023-08-17T05:08:35;3.92;;;1.55;;
56239;SDS011;42154;51.992;5.896;2023-08-17T05:11:01;3.38;;;1.30;;
56239;SDS011;42154;51.992;5.896;2023-08-17T05:13:27;4.22;;;1.77;;
56239;SDS011;42154;51.992;5.896;2023-08-17T05:15:56;4.20;;;1.48;;
56239;SDS011;42154;51.992;5.896;2023-08-17T05:18:22;3.63;;;1.90;;
56239;SDS011;42154;51.992;5.896;2023-08-17T05:20:48;5.00;;;1.63;;
56239;SDS011;42154;51.992;5.896;2023-08-17T05:23:14;4.18;;;1.58;;
56239;SDS011;42154;51.992;5.896;2023-08-17T05:25:40;3.22;;;1.70;;
56239;SDS011;42154;51.992;5.896;2023-08-17T05:28:05;4.82;;;1.92;;
56239;SDS011;42154;51.992;5.896;2023-08-17T05:30:32;4.30;;;1.77;;
56239;SDS011;42154;51.992;5.896;2023-08-17T05:32:58;4.68;;;1.27;;
56239;SDS011;42154;51.992;5.896;2023-08-17T05:35:25;4.63;;;1.30;;
56239;SDS011;42154;51.992;5.896;2023-08-17T05:37:51;2.40;;;1.52;;
56239;SDS011;42154;51.992;5.896;2023-08-17T05:40:17;2.38;;;1.25;;
56239;SDS011;42154;51.992;5.896;2023-08-17T05:42:44;5.22;;;1.73;;
56239;SDS011;42154;51.992;5.896;2023-08-17T05:45:10;7.30;;;1.60;;
56239;SDS011;42154;51.992;5.896;2023-08-17T05:47:36;3.20;;;1.52;;
56239;SDS011;42154;51.992;5.896;2023-08-17T05:50:02;3.75;;;1.50;;
56239;SDS011;42154;51.992;5.896;2023-08-17T05:52:28;3.25;;;1.30;;
56239;SDS011;42154;51.992;5.896;2023-08-17T05:54:54;3.58;;;1.10;;
56239;SDS011;42154;51.992;5.896;2023-08-17T05:57:19;3.10;;;1.20;;
56239;SDS011;42154;51.992;5.896;2023-08-17T05:59:45;4.28;;;1.38;;
56239;SDS011;42154;51.992;5.896;2023-08-17T06:02:11;5.43;;;1.20;;
56239;SDS011;42154;51.992;5.896;2023-08-17T06:04:37;4.40;;;1.60;;
56239;SDS011;42154;51.992;5.896;2023-08-17T06:07:02;3.95;;;1.50;;
56239;SDS011;42154;51.992;5.896;2023-08-17T06:09:28;3.67;;;1.70;;
56239;SDS011;42154;51.992;5.896;2023-08-17T06:11:54;3.80;;;1.50;;
56239;SDS011;42154;51.992;5.896;2023-08-17T06:14:20;4.53;;;1.30;;
56239;SDS011;42154;51.992;5.896;2023-08-17T06:16:46;4.80;;;1.75;;
56239;SDS011;42154;51.992;5.896;2023-08-17T06:19:12;3.40;;;1.52;;
56239;SDS011;42154;51.992;5.896;2023-08-17T06:21:37;5.68;;;1.70;;
56239;SDS011;42154;51.992;5.896;2023-08-17T06:24:03;4.00;;;1.67;;
56239;SDS011;42154;51.992;5.896;2023-08-17T06:26:29;2.45;;;1.30;;
56239;SDS011;42154;51.992;5.896;2023-08-17T06:28:55;3.03;;;1.27;;
56239;SDS011;42154;51.992;5.896;2023-08-17T06:31:21;2.60;;;1.38;;
56239;SDS011;42154;51.992;5.896;2023-08-17T06:33:52;4.25;;;2.00;;
56239;SDS011;42154;51.992;5.896;2023-08-17T06:36:18;5.20;;;1.23;;
56239;SDS011;42154;51.992;5.896;2023-08-17T06:38:44;3.85;;;2.08;;
56239;SDS011;42154;51.992;5.896;2023-08-17T06:41:10;3.58;;;1.48;;
56239;SDS011;42154;51.992;5.896;2023-08-17T06:43:36;3.42;;;1.67;;
56239;SDS011;42154;51.992;5.896;2023-08-17T06:46:02;4.10;;;1.42;;
56239;SDS011;42154;51.992;5.896;2023-08-17T06:48:28;4.78;;;1.60;;
56239;SDS011;42154;51.992;5.896;2023-08-17T06:50:53;4.70;;;2.15;;
56239;SDS011;42154;51.992;5.896;2023-08-17T06:53:19;3.92;;;1.55;;
56239;SDS011;42154;51.992;5.896;2023-08-17T06:55:45;5.40;;;1.88;;
56239;SDS011;42154;51.992;5.896;2023-08-17T06:58:11;4.85;;;1.90;;
56239;SDS011;42154;51.992;5.896;2023-08-17T07:00:37;3.22;;;1.83;;
56239;SDS011;42154;51.992;5.896;2023-08-17T07:03:05;2.88;;;1.80;;
56239;SDS011;42154;51.992;5.896;2023-08-17T07:05:31;4.53;;;1.67;;
56239;SDS011;42154;51.992;5.896;2023-08-17T07:07:58;6.18;;;1.70;;
56239;SDS011;42154;51.992;5.896;2023-08-17T07:10:24;4.53;;;1.90;;
56239;SDS011;42154;51.992;5.896;2023-08-17T07:12:50;4.10;;;1.60;;
56239;SDS011;42154;51.992;5.896;2023-08-17T07:15:16;2.30;;;1.75;;
56239;SDS011;42154;51.992;5.896;2023-08-17T07:17:42;4.38;;;1.85;;
56239;SDS011;42154;51.992;5.896;2023-08-17T07:20:08;6.88;;;2.08;;
56239;SDS011;42154;51.992;5.896;2023-08-17T07:22:36;4.82;;;1.80;;
56239;SDS011;42154;51.992;5.896;2023-08-17T07:25:02;4.30;;;1.38;;
56239;SDS011;42154;51.992;5.896;2023-08-17T07:27:28;2.00;;;1.30;;
56239;SDS011;42154;51.992;5.896;2023-08-17T07:29:55;3.35;;;1.50;;
56239;SDS011;42154;51.992;5.896;2023-08-17T07:32:21;3.15;;;1.55;;
56239;SDS011;42154;51.992;5.896;2023-08-17T07:34:47;5.35;;;1.70;;
56239;SDS011;42154;51.992;5.896;2023-08-17T07:37:13;5.55;;;1.27;;
56239;SDS011;42154;51.992;5.896;2023-08-17T07:39:39;3.75;;;1.33;;
56239;SDS011;42154;51.992;5.896;2023-08-17T07:42:04;4.72;;;1.95;;
56239;SDS011;42154;51.992;5.896;2023-08-17T07:44:30;7.55;;;1.80;;
56239;SDS011;42154;51.992;5.896;2023-08-17T07:46:59;5.85;;;2.00;;
56239;SDS011;42154;51.992;5.896;2023-08-17T07:49:27;4.55;;;1.80;;
56239;SDS011;42154;51.992;5.896;2023-08-17T07:51:53;5.53;;;2.00;;
56239;SDS011;42154;51.992;5.896;2023-08-17T07:54:19;3.80;;;1.45;;
56239;SDS011;42154;51.992;5.896;2023-08-17T07:56:45;4.88;;;1.75;;
56239;SDS011;42154;51.992;5.896;2023-08-17T07:59:10;5.07;;;1.85;;
56239;SDS011;42154;51.992;5.896;2023-08-17T08:01:36;3.70;;;1.77;;
56239;SDS011;42154;51.992;5.896;2023-08-17T08:04:02;6.70;;;1.77;;
56239;SDS011;42154;51.992;5.896;2023-08-17T08:06:28;4.10;;;1.73;;
56239;SDS011;42154;51.992;5.896;2023-08-17T08:08:54;11.15;;;2.20;;
56239;SDS011;42154;51.992;5.896;2023-08-17T08:11:21;5.07;;;1.60;;
56239;SDS011;42154;51.992;5.896;2023-08-17T08:13:47;4.60;;;1.58;;
56239;SDS011;42154;51.992;5.896;2023-08-17T08:16:13;4.30;;;1.65;;
56239;SDS011;42154;51.992;5.896;2023-08-17T08:18:38;4.13;;;1.52;;
56239;SDS011;42154;51.992;5.896;2023-08-17T08:21:04;4.10;;;1.95;;
56239;SDS011;42154;51.992;5.896;2023-08-17T08:23:30;4.63;;;1.73;;
56239;SDS011;42154;51.992;5.896;2023-08-17T08:25:55;4.32;;;2.08;;
56239;SDS011;42154;51.992;5.896;2023-08-17T08:28:23;2.78;;;1.50;;
56239;SDS011;42154;51.992;5.896;2023-08-17T08:30:50;3.88;;;1.77;;
56239;SDS011;42154;51.992;5.896;2023-08-17T08:33:16;4.78;;;2.08;;
56239;SDS011;42154;51.992;5.896;2023-08-17T08:35:42;4.50;;;1.70;;
56239;SDS011;42154;51.992;5.896;2023-08-17T08:38:08;5.07;;;1.90;;
56239;SDS011;42154;51.992;5.896;2023-08-17T08:40:33;4.15;;;1.42;;
56239;SDS011;42154;51.992;5.896;2023-08-17T08:43:02;7.47;;;2.00;;
56239;SDS011;42154;51.992;5.896;2023-08-17T08:45:28;6.63;;;1.80;;
56239;SDS011;42154;51.992;5.896;2023-08-17T08:47:55;5.78;;;2.10;;
56239;SDS011;42154;51.992;5.896;2023-08-17T08:50:22;5.38;;;2.70;;
56239;SDS011;42154;51.992;5.896;2023-08-17T08:55:28;7.95;;;2.75;;
56239;SDS011;42154;51.992;5.896;2023-08-17T08:57:59;4.47;;;2.15;;
56239;SDS011;42154;51.992;5.896;2023-08-17T09:00:26;4.82;;;2.10;;
56239;SDS011;42154;51.992;5.896;2023-08-17T09:02:52;6.95;;;2.90;;
56239;SDS011;42154;51.992;5.896;2023-08-17T09:05:18;7.85;;;2.75;;
56239;SDS011;42154;51.992;5.896;2023-08-17T09:07:45;6.63;;;2.90;;
56239;SDS011;42154;51.992;5.896;2023-08-17T09:10:14;7.68;;;2.85;;
56239;SDS011;42154;51.992;5.896;2023-08-17T09:12:41;6.32;;;2.83;;
56239;SDS011;42154;51.992;5.896;2023-08-17T09:15:08;6.63;;;2.80;;
56239;SDS011;42154;51.992;5.896;2023-08-17T09:17:34;8.65;;;3.40;;
56239;SDS011;42154;51.992;5.896;2023-08-17T09:20:00;6.78;;;3.38;;
56239;SDS011;42154;51.992;5.896;2023-08-17T09:22:40;7.78;;;3.60;;
56239;SDS011;42154;51.992;5.896;2023-08-17T09:25:07;7.35;;;3.10;;
56239;SDS011;42154;51.992;5.896;2023-08-17T09:27:37;4.50;;;2.75;;
56239;SDS011;42154;51.992;5.896;2023-08-17T09:30:08;7.57;;;3.28;;
56239;SDS011;42154;51.992;5.896;2023-08-17T09:32:35;6.57;;;3.50;;
56239;SDS011;42154;51.992;5.896;2023-08-17T09:35:01;4.20;;;2.72;;
56239;SDS011;42154;51.992;5.896;2023-08-17T09:37:28;5.28;;;2.63;;
56239;SDS011;42154;51.992;5.896;2023-08-17T09:39:55;5.75;;;2.50;;
56239;SDS011;42154;51.992;5.896;2023-08-17T09:42:21;7.80;;;3.53;;
56239;SDS011;42154;51.992;5.896;2023-08-17T09:44:51;7.68;;;3.85;;
56239;SDS011;42154;51.992;5.896;2023-08-17T09:47:17;5.70;;;3.10;;
56239;SDS011;42154;51.992;5.896;2023-08-17T09:49:53;8.65;;;3.67;;
56239;SDS011;42154;51.992;5.896;2023-08-17T09:52:20;7.93;;;3.45;;
56239;SDS011;42154;51.992;5.896;2023-08-17T09:54:47;7.35;;;3.70;;
56239;SDS011;42154;51.992;5.896;2023-08-17T09:57:13;7.97;;;3.70;;
56239;SDS011;42154;51.992;5.896;2023-08-17T09:59:40;6.97;;;2.88;;
56239;SDS011;42154;51.992;5.896;2023-08-17T10:02:27;5.03;;;2.83;;
56239;SDS011;42154;51.992;5.896;2023-08-17T10:04:53;7.07;;;3.28;;
56239;SDS011;42154;51.992;5.896;2023-08-17T10:07:22;5.05;;;2.85;;
56239;SDS011;42154;51.992;5.896;2023-08-17T10:09:56;7.65;;;3.33;;
56239;SDS011;42154;51.992;5.896;2023-08-17T10:12:30;6.43;;;3.00;;
56239;SDS011;42154;51.992;5.896;2023-08-17T10:15:06;7.32;;;3.75;;
56239;SDS011;42154;51.992;5.896;2023-08-17T10:17:37;5.25;;;2.72;;
56239;SDS011;42154;51.992;5.896;2023-08-17T10:20:09;6.05;;;2.42;;
56239;SDS011;42154;51.992;5.896;2023-08-17T10:25:09;6.22;;;2.95;;
56239;SDS011;42154;51.992;5.896;2023-08-17T10:27:39;6.57;;;3.03;;
56239;SDS011;42154;51.992;5.896;2023-08-17T10:30:08;6.88;;;3.05;;
56239;SDS011;42154;51.992;5.896;2023-08-17T10:32:35;6.97;;;3.03;;
56239;SDS011;42154;51.992;5.896;2023-08-17T10:35:01;5.00;;;3.00;;
56239;SDS011;42154;51.992;5.896;2023-08-17T10:37:29;6.07;;;3.60;;
56239;SDS011;42154;51.992;5.896;2023-08-17T10:39:56;7.53;;;3.80;;
56239;SDS011;42154;51.992;5.896;2023-08-17T10:42:32;7.93;;;2.92;;
56239;SDS011;42154;51.992;5.896;2023-08-17T10:45:00;6.75;;;3.20;;
56239;SDS011;42154;51.992;5.896;2023-08-17T10:47:46;6.95;;;3.70;;
56239;SDS011;42154;51.992;5.896;2023-08-17T10:52:48;7.40;;;3.60;;
56239;SDS011;42154;51.992;5.896;2023-08-17T10:55:15;9.10;;;4.57;;
56239;SDS011;42154;51.992;5.896;2023-08-17T10:57:42;6.75;;;3.10;;
56239;SDS011;42154;51.992;5.896;2023-08-17T11:00:21;8.50;;;4.13;;
56239;SDS011;42154;51.992;5.896;2023-08-17T11:02:58;5.70;;;2.95;;
56239;SDS011;42154;51.992;5.896;2023-08-17T11:05:39;8.50;;;2.95;;
56239;SDS011;42154;51.992;5.896;2023-08-17T11:08:10;6.78;;;3.03;;
56239;SDS011;42154;51.992;5.896;2023-08-17T11:10:58;7.03;;;3.88;;
56239;SDS011;42154;51.992;5.896;2023-08-17T11:13:28;9.40;;;4.57;;
56239;SDS011;42154;51.992;5.896;2023-08-17T11:15:57;8.15;;;3.92;;
56239;SDS011;42154;51.992;5.896;2023-08-17T11:18:23;7.60;;;3.65;;
56239;SDS011;42154;51.992;5.896;2023-08-17T11:20:50;7.38;;;3.75;;
56239;SDS011;42154;51.992;5.896;2023-08-17T11:23:16;6.75;;;3.38;;
56239;SDS011;42154;51.992;5.896;2023-08-17T11:25:43;7.82;;;4.32;;
56239;SDS011;42154;51.992;5.896;2023-08-17T11:28:09;6.07;;;3.85;;
56239;SDS011;42154;51.992;5.896;2023-08-17T11:30:35;6.43;;;3.83;;
56239;SDS011;42154;51.992;5.896;2023-08-17T11:33:04;4.10;;;2.63;;
56239;SDS011;42154;51.992;5.896;2023-08-17T11:35:30;7.25;;;3.45;;
56239;SDS011;42154;51.992;5.896;2023-08-17T11:37:56;4.22;;;2.85;;
56239;SDS011;42154;51.992;5.896;2023-08-17T11:40:22;6.70;;;2.85;;
56239;SDS011;42154;51.992;5.896;2023-08-17T11:42:49;4.47;;;2.88;;
56239;SDS011;42154;51.992;5.896;2023-08-17T11:45:15;5.82;;;3.40;;
56239;SDS011;42154;51.992;5.896;2023-08-17T11:47:43;7.80;;;3.20;;
56239;SDS011;42154;51.992;5.896;2023-08-17T11:50:10;6.20;;;3.25;;
56239;SDS011;42154;51.992;5.896;2023-08-17T11:52:36;4.85;;;3.30;;
56239;SDS011;42154;51.992;5.896;2023-08-17T11:55:03;8.38;;;4.10;;
56239;SDS011;42154;51.992;5.896;2023-08-17T11:57:35;5.57;;;3.38;;
56239;SDS011;42154;51.992;5.896;2023-08-17T12:00:02;8.45;;;4.47;;
56239;SDS011;42154;51.992;5.896;2023-08-17T12:02:31;7.28;;;3.97;;
56239;SDS011;42154;51.992;5.896;2023-08-17T12:04:57;8.75;;;4.30;;
56239;SDS011;42154;51.992;5.896;2023-08-17T12:07:23;6.68;;;3.40;;
56239;SDS011;42154;51.992;5.896;2023-08-17T12:09:50;6.30;;;3.58;;
56239;SDS011;42154;51.992;5.896;2023-08-17T12:12:19;6.15;;;3.35;;
56239;SDS011;42154;51.992;5.896;2023-08-17T12:14:50;4.63;;;3.22;;
56239;SDS011;42154;51.992;5.896;2023-08-17T12:17:19;4.30;;;2.72;;
56239;SDS011;42154;51.992;5.896;2023-08-17T12:19:50;7.75;;;3.70;;
56239;SDS011;42154;51.992;5.896;2023-08-17T12:22:22;6.03;;;2.80;;
56239;SDS011;42154;51.992;5.896;2023-08-17T12:24:49;5.75;;;3.90;;
56239;SDS011;42154;51.992;5.896;2023-08-17T12:27:15;5.35;;;3.15;;
56239;SDS011;42154;51.992;5.896;2023-08-17T12:29:51;7.60;;;3.40;;
56239;SDS011;42154;51.992;5.896;2023-08-17T12:32:17;6.13;;;3.10;;
56239;SDS011;42154;51.992;5.896;2023-08-17T12:34:45;5.97;;;3.15;;
56239;SDS011;42154;51.992;5.896;2023-08-17T12:37:11;7.25;;;4.10;;
56239;SDS011;42154;51.992;5.896;2023-08-17T12:39:43;8.00;;;4.25;;
56239;SDS011;42154;51.992;5.896;2023-08-17T12:42:08;7.90;;;3.97;;
56239;SDS011;42154;51.992;5.896;2023-08-17T12:44:34;5.38;;;3.42;;
56239;SDS011;42154;51.992;5.896;2023-08-17T12:47:00;7.20;;;3.60;;
56239;SDS011;42154;51.992;5.896;2023-08-17T12:49:25;7.32;;;4.15;;
56239;SDS011;42154;51.992;5.896;2023-08-17T12:51:51;5.95;;;3.28;;
56239;SDS011;42154;51.992;5.896;2023-08-17T12:54:17;4.60;;;3.50;;
56239;SDS011;42154;51.992;5.896;2023-08-17T12:56:43;5.32;;;3.10;;
56239;SDS011;42154;51.992;5.896;2023-08-17T12:59:10;6.65;;;3.35;;
56239;SDS011;42154;51.992;5.896;2023-08-17T13:01:36;6.50;;;3.90;;
56239;SDS011;42154;51.992;5.896;2023-08-17T13:04:01;6.00;;;3.60;;
56239;SDS011;42154;51.992;5.896;2023-08-17T13:06:27;5.00;;;3.15;;
56239;SDS011;42154;51.992;5.896;2023-08-17T13:08:54;6.60;;;4.15;;
56239;SDS011;42154;51.992;5.896;2023-08-17T13:11:20;5.78;;;3.70;;
56239;SDS011;42154;51.992;5.896;2023-08-17T13:13:45;7.13;;;4.45;;
56239;SDS011;42154;51.992;5.896;2023-08-17T13:16:11;9.15;;;4.65;;
56239;SDS011;42154;51.992;5.896;2023-08-17T13:18:37;8.15;;;4.90;;
56239;SDS011;42154;51.992;5.896;2023-08-17T13:21:03;7.00;;;4.35;;
56239;SDS011;42154;51.992;5.896;2023-08-17T13:23:29;7.63;;;4.30;;
56239;SDS011;42154;51.992;5.896;2023-08-17T13:25:54;7.05;;;4.50;;
56239;SDS011;42154;51.992;5.896;2023-08-17T13:28:20;5.75;;;4.35;;
56239;SDS011;42154;51.992;5.896;2023-08-17T13:30:46;9.05;;;4.93;;
56239;SDS011;42154;51.992;5.896;2023-08-17T13:33:12;5.80;;;3.90;;
56239;SDS011;42154;51.992;5.896;2023-08-17T13:35:38;6.03;;;4.10;;
56239;SDS011;42154;51.992;5.896;2023-08-17T13:38:04;6.45;;;4.32;;
56239;SDS011;42154;51.992;5.896;2023-08-17T13:40:30;5.50;;;3.85;;
56239;SDS011;42154;51.992;5.896;2023-08-17T13:42:56;9.30;;;4.65;;
56239;SDS011;42154;51.992;5.896;2023-08-17T13:45:23;6.13;;;3.40;;
56239;SDS011;42154;51.992;5.896;2023-08-17T13:47:49;3.50;;;3.00;;
56239;SDS011;42154;51.992;5.896;2023-08-17T13:50:15;7.28;;;5.20;;
56239;SDS011;42154;51.992;5.896;2023-08-17T13:52:43;6.22;;;4.85;;
56239;SDS011;42154;51.992;5.896;2023-08-17T13:55:09;6.63;;;4.45;;
56239;SDS011;42154;51.992;5.896;2023-08-17T13:57:35;6.95;;;4.20;;
56239;SDS011;42154;51.992;5.896;2023-08-17T14:00:01;8.25;;;4.28;;
56239;SDS011;42154;51.992;5.896;2023-08-17T14:02:30;5.75;;;3.88;;
56239;SDS011;42154;51.992;5.896;2023-08-17T14:04:56;6.60;;;4.65;;
56239;SDS011;42154;51.992;5.896;2023-08-17T14:07:22;7.68;;;3.92;;
56239;SDS011;42154;51.992;5.896;2023-08-17T14:09:48;7.35;;;4.18;;
56239;SDS011;42154;51.992;5.896;2023-08-17T14:12:14;7.63;;;5.07;;
56239;SDS011;42154;51.992;5.896;2023-08-17T14:14:39;7.45;;;4.47;;
56239;SDS011;42154;51.992;5.896;2023-08-17T14:17:05;6.15;;;3.67;;
56239;SDS011;42154;51.992;5.896;2023-08-17T14:19:31;5.43;;;4.00;;
56239;SDS011;42154;51.992;5.896;2023-08-17T14:21:56;5.97;;;4.15;;
56239;SDS011;42154;51.992;5.896;2023-08-17T14:24:24;4.75;;;4.15;;
56239;SDS011;42154;51.992;5.896;2023-08-17T14:26:50;4.55;;;3.90;;
56239;SDS011;42154;51.992;5.896;2023-08-17T14:29:15;4.47;;;3.67;;
56239;SDS011;42154;51.992;5.896;2023-08-17T14:31:41;6.15;;;4.28;;
56239;SDS011;42154;51.992;5.896;2023-08-17T14:34:07;6.88;;;4.28;;
56239;SDS011;42154;51.992;5.896;2023-08-17T14:36:33;6.13;;;3.70;;
56239;SDS011;42154;51.992;5.896;2023-08-17T14:38:59;5.15;;;4.22;;
56239;SDS011;42154;51.992;5.896;2023-08-17T14:41:24;5.75;;;3.97;;
56239;SDS011;42154;51.992;5.896;2023-08-17T14:43:56;5.38;;;4.55;;
56239;SDS011;42154;51.992;5.896;2023-08-17T14:46:23;6.35;;;4.68;;
56239;SDS011;42154;51.992;5.896;2023-08-17T14:48:50;8.27;;;4.15;;
56239;SDS011;42154;51.992;5.896;2023-08-17T14:51:16;9.40;;;5.40;;
56239;SDS011;42154;51.992;5.896;2023-08-17T14:53:41;7.95;;;4.82;;
56239;SDS011;42154;51.992;5.896;2023-08-17T14:56:08;9.10;;;5.50;;
56239;SDS011;42154;51.992;5.896;2023-08-17T14:58:34;7.15;;;5.03;;
56239;SDS011;42154;51.992;5.896;2023-08-17T15:01:00;9.10;;;6.03;;
56239;SDS011;42154;51.992;5.896;2023-08-17T15:03:26;6.18;;;5.30;;